sensor_id;sensor_type;location;lat;lon;timestamp;P1;durP1;ratioP1;P2;durP2;ratioP2
8100;SDS011;4093;53.470;9.832;2023-06-14T00:00:06;5.22;;;3.33;;
8100;SDS011;4093;53.470;9.832;2023-06-14T00:02:35;5.30;;;3.55;;
8100;SDS011;4093;53.470;9.832;2023-06-14T00:05:03;5.07;;;3.30;;
8100;SDS011;4093;53.470;9.832;2023-06-14T00:07:34;4.57;;;3.50;;
8100;SDS011;4093;53.470;9.832;2023-06-14T00:10:05;4.43;;;3.33;;
8100;SDS011;4093;53.470;9.832;2023-06-14T00:12:33;6.55;;;3.30;;
8100;SDS011;4093;53.470;9.832;2023-06-14T00:15:02;7.90;;;2.85;;
8100;SDS011;4093;53.470;9.832;2023-06-14T00:17:30;5.35;;;3.50;;
8100;SDS011;4093;53.470;9.832;2023-06-14T00:19:59;4.32;;;3.55;;
8100;SDS011;4093;53.470;9.832;2023-06-14T00:22:31;7.28;;;3.45;;
8100;SDS011;4093;53.470;9.832;2023-06-14T00:24:59;4.28;;;3.10;;
8100;SDS011;4093;53.470;9.832;2023-06-14T00:27:40;6.63;;;2.97;;
8100;SDS011;4093;53.470;9.832;2023-06-14T00:30:08;5.88;;;3.00;;
8100;SDS011;4093;53.470;9.832;2023-06-14T00:32:37;4.57;;;3.40;;
8100;SDS011;4093;53.470;9.832;2023-06-14T00:35:06;6.32;;;3.28;;
8100;SDS011;4093;53.470;9.832;2023-06-14T00:37:34;9.05;;;3.67;;
8100;SDS011;4093;53.470;9.832;2023-06-14T00:40:02;6.45;;;3.30;;
8100;SDS011;4093;53.470;9.832;2023-06-14T00:42:30;5.18;;;3.40;;
8100;SDS011;4093;53.470;9.832;2023-06-14T00:44:58;4.07;;;3.63;;
8100;SDS011;4093;53.470;9.832;2023-06-14T00:47:27;5.45;;;3.25;;
8100;SDS011;4093;53.470;9.832;2023-06-14T00:49:55;3.70;;;3.20;;
8100;SDS011;4093;53.470;9.832;2023-06-14T00:52:25;6.97;;;3.17;;
8100;SDS011;4093;53.470;9.832;2023-06-14T00:54:54;6.15;;;3.30;;
8100;SDS011;4093;53.470;9.832;2023-06-14T00:57:21;5.50;;;3.45;;
8100;SDS011;4093;53.470;9.832;2023-06-14T00:59:50;4.65;;;3.33;;
8100;SDS011;4093;53.470;9.832;2023-06-14T01:02:18;4.45;;;3.45;;
8100;SDS011;4093;53.470;9.832;2023-06-14T01:04:46;5.22;;;3.63;;
8100;SDS011;4093;53.470;9.832;2023-06-14T01:07:18;4.03;;;3.38;;
8100;SDS011;4093;53.470;9.832;2023-06-14T01:09:58;7.05;;;3.60;;
8100;SDS011;4093;53.470;9.832;2023-06-14T01:12:36;6.05;;;3.38;;
8100;SDS011;4093;53.470;9.832;2023-06-14T01:15:12;5.22;;;3.65;;
8100;SDS011;4093;53.470;9.832;2023-06-14T01:17:40;3.72;;;3.30;;
8100;SDS011;4093;53.470;9.832;2023-06-14T01:20:12;6.00;;;3.60;;
8100;SDS011;4093;53.470;9.832;2023-06-14T01:22:49;6.13;;;3.30;;
8100;SDS011;4093;53.470;9.832;2023-06-14T01:25:19;4.82;;;3.83;;
8100;SDS011;4093;53.470;9.832;2023-06-14T01:27:49;4.72;;;3.90;;
8100;SDS011;4093;53.470;9.832;2023-06-14T01:30:18;5.45;;;3.90;;
8100;SDS011;4093;53.470;9.832;2023-06-14T01:32:47;3.92;;;3.63;;
8100;SDS011;4093;53.470;9.832;2023-06-14T01:35:17;8.68;;;4.40;;
8100;SDS011;4093;53.470;9.832;2023-06-14T01:37:46;5.90;;;4.30;;
8100;SDS011;4093;53.470;9.832;2023-06-14T01:40:16;4.90;;;3.92;;
8100;SDS011;4093;53.470;9.832;2023-06-14T01:42:46;4.50;;;4.10;;
8100;SDS011;4093;53.470;9.832;2023-06-14T01:45:16;6.30;;;4.30;;
8100;SDS011;4093;53.470;9.832;2023-06-14T01:47:45;5.35;;;4.20;;
8100;SDS011;4093;53.470;9.832;2023-06-14T01:50:14;5.20;;;4.28;;
8100;SDS011;4093;53.470;9.832;2023-06-14T01:52:42;6.80;;;4.22;;
8100;SDS011;4093;53.470;9.832;2023-06-14T01:55:11;7.10;;;4.50;;
8100;SDS011;4093;53.470;9.832;2023-06-14T01:57:40;5.20;;;3.90;;
8100;SDS011;4093;53.470;9.832;2023-06-14T02:00:08;4.90;;;3.67;;
8100;SDS011;4093;53.470;9.832;2023-06-14T02:02:39;6.22;;;4.10;;
8100;SDS011;4093;53.470;9.832;2023-06-14T02:05:07;7.05;;;4.00;;
8100;SDS011;4093;53.470;9.832;2023-06-14T02:07:35;5.25;;;3.67;;
8100;SDS011;4093;53.470;9.832;2023-06-14T02:10:03;6.97;;;4.00;;
8100;SDS011;4093;53.470;9.832;2023-06-14T02:12:31;7.35;;;3.88;;
8100;SDS011;4093;53.470;9.832;2023-06-14T02:15:00;4.78;;;3.80;;
8100;SDS011;4093;53.470;9.832;2023-06-14T02:17:29;5.05;;;3.67;;
8100;SDS011;4093;53.470;9.832;2023-06-14T02:19:57;4.85;;;4.07;;
8100;SDS011;4093;53.470;9.832;2023-06-14T02:22:25;4.78;;;3.42;;
8100;SDS011;4093;53.470;9.832;2023-06-14T02:24:53;6.10;;;3.90;;
8100;SDS011;4093;53.470;9.832;2023-06-14T02:27:27;6.20;;;3.83;;
8100;SDS011;4093;53.470;9.832;2023-06-14T02:29:55;3.65;;;3.33;;
8100;SDS011;4093;53.470;9.832;2023-06-14T02:32:24;8.18;;;3.67;;
8100;SDS011;4093;53.470;9.832;2023-06-14T02:34:52;5.20;;;3.47;;
8100;SDS011;4093;53.470;9.832;2023-06-14T02:37:20;5.63;;;4.15;;
8100;SDS011;4093;53.470;9.832;2023-06-14T02:39:48;5.13;;;3.80;;
8100;SDS011;4093;53.470;9.832;2023-06-14T02:42:16;4.43;;;3.88;;
8100;SDS011;4093;53.470;9.832;2023-06-14T02:44:44;5.10;;;3.63;;
8100;SDS011;4093;53.470;9.832;2023-06-14T02:47:17;4.80;;;3.40;;
8100;SDS011;4093;53.470;9.832;2023-06-14T02:49:46;5.38;;;3.47;;
8100;SDS011;4093;53.470;9.832;2023-06-14T02:52:14;7.22;;;3.65;;
8100;SDS011;4093;53.470;9.832;2023-06-14T02:54:42;5.38;;;3.65;;
8100;SDS011;4093;53.470;9.832;2023-06-14T02:57:09;4.63;;;3.67;;
8100;SDS011;4093;53.470;9.832;2023-06-14T02:59:37;3.97;;;3.50;;
8100;SDS011;4093;53.470;9.832;2023-06-14T03:02:05;6.75;;;3.95;;
8100;SDS011;4093;53.470;9.832;2023-06-14T03:04:33;6.57;;;3.67;;
8100;SDS011;4093;53.470;9.832;2023-06-14T03:07:05;5.03;;;3.67;;
8100;SDS011;4093;53.470;9.832;2023-06-14T03:09:35;4.68;;;3.72;;
8100;SDS011;4093;53.470;9.832;2023-06-14T03:12:04;5.17;;;3.83;;
8100;SDS011;4093;53.470;9.832;2023-06-14T03:14:33;6.97;;;3.90;;
8100;SDS011;4093;53.470;9.832;2023-06-14T03:17:01;7.53;;;4.00;;
8100;SDS011;4093;53.470;9.832;2023-06-14T03:19:31;4.50;;;3.60;;
8100;SDS011;4093;53.470;9.832;2023-06-14T03:21:59;4.90;;;4.10;;
8100;SDS011;4093;53.470;9.832;2023-06-14T03:24:28;4.50;;;3.87;;
8100;SDS011;4093;53.470;9.832;2023-06-14T03:26:58;4.70;;;4.20;;
8100;SDS011;4093;53.470;9.832;2023-06-14T03:29:25;6.20;;;3.87;;
8100;SDS011;4093;53.470;9.832;2023-06-14T03:31:57;3.97;;;3.67;;
8100;SDS011;4093;53.470;9.832;2023-06-14T03:34:25;7.10;;;3.60;;
8100;SDS011;4093;53.470;9.832;2023-06-14T03:36:53;5.33;;;3.90;;
8100;SDS011;4093;53.470;9.832;2023-06-14T03:39:21;4.07;;;3.53;;
8100;SDS011;4093;53.470;9.832;2023-06-14T03:41:50;6.77;;;3.80;;
8100;SDS011;4093;53.470;9.832;2023-06-14T03:44:19;5.00;;;4.03;;
8100;SDS011;4093;53.470;9.832;2023-06-14T03:46:47;4.63;;;3.67;;
8100;SDS011;4093;53.470;9.832;2023-06-14T03:49:14;5.03;;;3.93;;
8100;SDS011;4093;53.470;9.832;2023-06-14T03:51:43;5.57;;;3.90;;
8100;SDS011;4093;53.470;9.832;2023-06-14T03:54:11;10.97;;;4.00;;
8100;SDS011;4093;53.470;9.832;2023-06-14T03:57:00;5.90;;;4.43;;
8100;SDS011;4093;53.470;9.832;2023-06-14T03:59:27;5.20;;;4.00;;
8100;SDS011;4093;53.470;9.832;2023-06-14T04:01:55;6.47;;;4.30;;
8100;SDS011;4093;53.470;9.832;2023-06-14T04:04:23;9.17;;;4.33;;
8100;SDS011;4093;53.470;9.832;2023-06-14T04:06:55;9.50;;;4.43;;
8100;SDS011;4093;53.470;9.832;2023-06-14T04:09:24;6.07;;;3.70;;
8100;SDS011;4093;53.470;9.832;2023-06-14T04:11:52;7.80;;;4.47;;
8100;SDS011;4093;53.470;9.832;2023-06-14T04:14:22;6.90;;;4.33;;
8100;SDS011;4093;53.470;9.832;2023-06-14T04:16:50;5.10;;;4.50;;
8100;SDS011;4093;53.470;9.832;2023-06-14T04:19:18;6.53;;;4.43;;
8100;SDS011;4093;53.470;9.832;2023-06-14T04:21:46;9.30;;;4.73;;
8100;SDS011;4093;53.470;9.832;2023-06-14T04:24:13;7.18;;;4.30;;
8100;SDS011;4093;53.470;9.832;2023-06-14T04:26:41;5.13;;;4.15;;
8100;SDS011;4093;53.470;9.832;2023-06-14T04:29:11;6.28;;;4.00;;
8100;SDS011;4093;53.470;9.832;2023-06-14T04:31:41;7.13;;;4.45;;
8100;SDS011;4093;53.470;9.832;2023-06-14T04:34:10;8.02;;;4.30;;
8100;SDS011;4093;53.470;9.832;2023-06-14T04:36:43;7.45;;;4.25;;
8100;SDS011;4093;53.470;9.832;2023-06-14T04:39:15;8.10;;;5.00;;
8100;SDS011;4093;53.470;9.832;2023-06-14T04:41:44;6.25;;;4.43;;
8100;SDS011;4093;53.470;9.832;2023-06-14T04:44:13;8.73;;;4.15;;
8100;SDS011;4093;53.470;9.832;2023-06-14T04:46:44;7.60;;;4.80;;
8100;SDS011;4093;53.470;9.832;2023-06-14T04:49:13;9.02;;;5.35;;
8100;SDS011;4093;53.470;9.832;2023-06-14T04:51:41;6.63;;;4.45;;
8100;SDS011;4093;53.470;9.832;2023-06-14T04:54:10;6.85;;;4.60;;
8100;SDS011;4093;53.470;9.832;2023-06-14T04:56:40;10.95;;;5.03;;
8100;SDS011;4093;53.470;9.832;2023-06-14T04:59:08;9.25;;;4.65;;
8100;SDS011;4093;53.470;9.832;2023-06-14T05:01:37;10.25;;;4.72;;
8100;SDS011;4093;53.470;9.832;2023-06-14T05:04:07;7.05;;;4.78;;
8100;SDS011;4093;53.470;9.832;2023-06-14T05:06:34;6.57;;;4.68;;
8100;SDS011;4093;53.470;9.832;2023-06-14T05:09:02;8.00;;;4.80;;
8100;SDS011;4093;53.470;9.832;2023-06-14T05:11:30;7.68;;;4.88;;
8100;SDS011;4093;53.470;9.832;2023-06-14T05:13:58;7.75;;;4.97;;
8100;SDS011;4093;53.470;9.832;2023-06-14T05:16:26;6.53;;;4.55;;
8100;SDS011;4093;53.470;9.832;2023-06-14T05:18:55;7.50;;;4.80;;
8100;SDS011;4093;53.470;9.832;2023-06-14T05:21:25;6.93;;;4.60;;
8100;SDS011;4093;53.470;9.832;2023-06-14T05:23:53;7.93;;;4.40;;
8100;SDS011;4093;53.470;9.832;2023-06-14T05:26:22;9.07;;;4.57;;
8100;SDS011;4093;53.470;9.832;2023-06-14T05:28:54;8.57;;;4.40;;
8100;SDS011;4093;53.470;9.832;2023-06-14T05:31:23;8.57;;;4.75;;
8100;SDS011;4093;53.470;9.832;2023-06-14T05:33:52;5.63;;;4.00;;
8100;SDS011;4093;53.470;9.832;2023-06-14T05:36:20;7.75;;;4.32;;
8100;SDS011;4093;53.470;9.832;2023-06-14T05:38:49;7.00;;;4.20;;
8100;SDS011;4093;53.470;9.832;2023-06-14T05:41:24;6.70;;;4.25;;
8100;SDS011;4093;53.470;9.832;2023-06-14T05:43:52;8.40;;;4.43;;
8100;SDS011;4093;53.470;9.832;2023-06-14T05:46:21;7.03;;;4.38;;
8100;SDS011;4093;53.470;9.832;2023-06-14T05:48:51;7.32;;;4.68;;
8100;SDS011;4093;53.470;9.832;2023-06-14T05:51:19;6.65;;;3.97;;
8100;SDS011;4093;53.470;9.832;2023-06-14T05:53:49;4.60;;;3.83;;
8100;SDS011;4093;53.470;9.832;2023-06-14T05:56:17;6.43;;;4.07;;
8100;SDS011;4093;53.470;9.832;2023-06-14T05:58:45;7.20;;;4.10;;
8100;SDS011;4093;53.470;9.832;2023-06-14T06:01:13;5.72;;;3.83;;
8100;SDS011;4093;53.470;9.832;2023-06-14T06:03:41;5.18;;;3.90;;
8100;SDS011;4093;53.470;9.832;2023-06-14T06:06:12;6.10;;;3.85;;
8100;SDS011;4093;53.470;9.832;2023-06-14T06:08:40;5.57;;;4.22;;
8100;SDS011;4093;53.470;9.832;2023-06-14T06:11:10;5.50;;;3.92;;
8100;SDS011;4093;53.470;9.832;2023-06-14T06:13:38;6.57;;;3.60;;
8100;SDS011;4093;53.470;9.832;2023-06-14T06:16:07;5.85;;;3.60;;
8100;SDS011;4093;53.470;9.832;2023-06-14T06:18:35;6.90;;;3.67;;
8100;SDS011;4093;53.470;9.832;2023-06-14T06:21:03;5.80;;;3.80;;
8100;SDS011;4093;53.470;9.832;2023-06-14T06:23:31;4.65;;;3.55;;
8100;SDS011;4093;53.470;9.832;2023-06-14T06:25:59;5.72;;;3.80;;
8100;SDS011;4093;53.470;9.832;2023-06-14T06:28:28;8.07;;;3.85;;
8100;SDS011;4093;53.470;9.832;2023-06-14T06:30:55;5.40;;;3.70;;
8100;SDS011;4093;53.470;9.832;2023-06-14T06:33:23;6.35;;;3.65;;
8100;SDS011;4093;53.470;9.832;2023-06-14T06:35:51;4.72;;;3.78;;
8100;SDS011;4093;53.470;9.832;2023-06-14T06:38:18;4.80;;;3.85;;
8100;SDS011;4093;53.470;9.832;2023-06-14T06:40:46;4.65;;;3.75;;
8100;SDS011;4093;53.470;9.832;2023-06-14T06:43:14;5.47;;;4.05;;
8100;SDS011;4093;53.470;9.832;2023-06-14T06:45:44;6.00;;;3.60;;
8100;SDS011;4093;53.470;9.832;2023-06-14T06:48:12;14.10;;;4.55;;
8100;SDS011;4093;53.470;9.832;2023-06-14T06:50:42;4.90;;;3.55;;
8100;SDS011;4093;53.470;9.832;2023-06-14T06:53:09;5.65;;;3.38;;
8100;SDS011;4093;53.470;9.832;2023-06-14T06:55:38;7.75;;;3.47;;
8100;SDS011;4093;53.470;9.832;2023-06-14T06:58:06;3.92;;;3.50;;
8100;SDS011;4093;53.470;9.832;2023-06-14T07:00:33;11.32;;;3.70;;
8100;SDS011;4093;53.470;9.832;2023-06-14T07:03:02;7.68;;;3.72;;
8100;SDS011;4093;53.470;9.832;2023-06-14T07:05:30;5.80;;;3.55;;
8100;SDS011;4093;53.470;9.832;2023-06-14T07:07:58;6.53;;;3.63;;
8100;SDS011;4093;53.470;9.832;2023-06-14T07:10:26;4.88;;;3.40;;
8100;SDS011;4093;53.470;9.832;2023-06-14T07:12:54;4.60;;;3.85;;
8100;SDS011;4093;53.470;9.832;2023-06-14T07:15:21;6.68;;;3.30;;
8100;SDS011;4093;53.470;9.832;2023-06-14T07:17:49;4.25;;;3.30;;
8100;SDS011;4093;53.470;9.832;2023-06-14T07:20:20;5.88;;;3.10;;
8100;SDS011;4093;53.470;9.832;2023-06-14T07:22:50;5.50;;;3.38;;
8100;SDS011;4093;53.470;9.832;2023-06-14T07:25:18;3.22;;;2.90;;
8100;SDS011;4093;53.470;9.832;2023-06-14T07:27:46;3.70;;;3.33;;
8100;SDS011;4093;53.470;9.832;2023-06-14T07:30:14;2.90;;;2.70;;
8100;SDS011;4093;53.470;9.832;2023-06-14T07:32:42;4.45;;;2.78;;
8100;SDS011;4093;53.470;9.832;2023-06-14T07:35:10;3.85;;;2.90;;
8100;SDS011;4093;53.470;9.832;2023-06-14T07:37:39;5.32;;;3.03;;
8100;SDS011;4093;53.470;9.832;2023-06-14T07:40:07;3.80;;;3.33;;
8100;SDS011;4093;53.470;9.832;2023-06-14T07:42:36;4.97;;;3.03;;
8100;SDS011;4093;53.470;9.832;2023-06-14T07:45:05;5.63;;;2.83;;
8100;SDS011;4093;53.470;9.832;2023-06-14T07:47:33;3.55;;;2.70;;
8100;SDS011;4093;53.470;9.832;2023-06-14T07:50:01;4.47;;;3.05;;
8100;SDS011;4093;53.470;9.832;2023-06-14T07:52:30;3.15;;;2.83;;
8100;SDS011;4093;53.470;9.832;2023-06-14T07:54:59;4.57;;;2.45;;
8100;SDS011;4093;53.470;9.832;2023-06-14T07:57:27;3.72;;;2.67;;
8100;SDS011;4093;53.470;9.832;2023-06-14T07:59:55;3.28;;;2.92;;
8100;SDS011;4093;53.470;9.832;2023-06-14T08:02:23;3.85;;;2.60;;
8100;SDS011;4093;53.470;9.832;2023-06-14T08:04:51;4.18;;;3.00;;
8100;SDS011;4093;53.470;9.832;2023-06-14T08:07:18;3.55;;;3.00;;
8100;SDS011;4093;53.470;9.832;2023-06-14T08:09:46;4.63;;;2.90;;
8100;SDS011;4093;53.470;9.832;2023-06-14T08:12:15;3.75;;;2.88;;
8100;SDS011;4093;53.470;9.832;2023-06-14T08:14:43;3.33;;;2.40;;
8100;SDS011;4093;53.470;9.832;2023-06-14T08:17:11;3.55;;;2.70;;
8100;SDS011;4093;53.470;9.832;2023-06-14T08:19:38;3.35;;;2.67;;
8100;SDS011;4093;53.470;9.832;2023-06-14T08:22:07;5.00;;;3.20;;
8100;SDS011;4093;53.470;9.832;2023-06-14T08:24:38;4.43;;;3.10;;
8100;SDS011;4093;53.470;9.832;2023-06-14T08:27:06;3.33;;;3.08;;
8100;SDS011;4093;53.470;9.832;2023-06-14T08:29:36;3.47;;;2.88;;
8100;SDS011;4093;53.470;9.832;2023-06-14T08:32:06;6.68;;;3.50;;
8100;SDS011;4093;53.470;9.832;2023-06-14T08:34:34;4.40;;;2.90;;
8100;SDS011;4093;53.470;9.832;2023-06-14T08:37:02;3.63;;;3.25;;
8100;SDS011;4093;53.470;9.832;2023-06-14T08:39:29;5.40;;;3.08;;
8100;SDS011;4093;53.470;9.832;2023-06-14T08:41:57;3.83;;;2.70;;
8100;SDS011;4093;53.470;9.832;2023-06-14T08:44:25;3.38;;;2.97;;
8100;SDS011;4093;53.470;9.832;2023-06-14T08:46:55;3.85;;;3.45;;
8100;SDS011;4093;53.470;9.832;2023-06-14T08:49:23;4.72;;;3.15;;
8100;SDS011;4093;53.470;9.832;2023-06-14T08:51:53;3.67;;;3.22;;
8100;SDS011;4093;53.470;9.832;2023-06-14T08:54:25;3.83;;;3.15;;
8100;SDS011;4093;53.470;9.832;2023-06-14T08:56:56;4.97;;;2.92;;
8100;SDS011;4093;53.470;9.832;2023-06-14T08:59:24;8.73;;;3.65;;
8100;SDS011;4093;53.470;9.832;2023-06-14T09:01:55;3.90;;;3.35;;
8100;SDS011;4093;53.470;9.832;2023-06-14T09:04:37;4.78;;;3.25;;
8100;SDS011;4093;53.470;9.832;2023-06-14T09:07:05;7.97;;;3.20;;
8100;SDS011;4093;53.470;9.832;2023-06-14T09:09:33;4.78;;;3.13;;
8100;SDS011;4093;53.470;9.832;2023-06-14T09:12:15;4.28;;;3.08;;
8100;SDS011;4093;53.470;9.832;2023-06-14T09:14:43;4.65;;;3.72;;
8100;SDS011;4093;53.470;9.832;2023-06-14T09:17:14;6.85;;;3.63;;
8100;SDS011;4093;53.470;9.832;2023-06-14T09:19:42;4.90;;;3.70;;
8100;SDS011;4093;53.470;9.832;2023-06-14T09:22:12;3.70;;;3.30;;
8100;SDS011;4093;53.470;9.832;2023-06-14T09:24:41;4.10;;;3.25;;
8100;SDS011;4093;53.470;9.832;2023-06-14T09:27:09;6.43;;;3.50;;
8100;SDS011;4093;53.470;9.832;2023-06-14T09:29:43;5.25;;;3.63;;
8100;SDS011;4093;53.470;9.832;2023-06-14T09:32:10;6.25;;;3.67;;
8100;SDS011;4093;53.470;9.832;2023-06-14T09:34:39;5.38;;;3.33;;
8100;SDS011;4093;53.470;9.832;2023-06-14T09:37:07;4.45;;;3.72;;
8100;SDS011;4093;53.470;9.832;2023-06-14T09:39:35;5.93;;;3.45;;
8100;SDS011;4093;53.470;9.832;2023-06-14T09:42:16;8.98;;;3.90;;
8100;SDS011;4093;53.470;9.832;2023-06-14T09:44:45;4.30;;;3.80;;
8100;SDS011;4093;53.470;9.832;2023-06-14T09:47:15;4.07;;;3.55;;
8100;SDS011;4093;53.470;9.832;2023-06-14T09:49:45;6.15;;;3.40;;
8100;SDS011;4093;53.470;9.832;2023-06-14T09:52:14;3.40;;;3.10;;
8100;SDS011;4093;53.470;9.832;2023-06-14T09:54:43;6.57;;;3.42;;
8100;SDS011;4093;53.470;9.832;2023-06-14T09:57:13;4.75;;;3.60;;
8100;SDS011;4093;53.470;9.832;2023-06-14T09:59:42;3.53;;;3.22;;
8100;SDS011;4093;53.470;9.832;2023-06-14T10:02:11;4.50;;;3.40;;
8100;SDS011;4093;53.470;9.832;2023-06-14T10:04:43;5.25;;;3.28;;
8100;SDS011;4093;53.470;9.832;2023-06-14T10:07:19;4.63;;;3.40;;
8100;SDS011;4093;53.470;9.832;2023-06-14T10:09:47;6.47;;;3.53;;
8100;SDS011;4093;53.470;9.832;2023-06-14T10:12:16;5.88;;;3.65;;
8100;SDS011;4093;53.470;9.832;2023-06-14T10:14:48;7.03;;;3.28;;
8100;SDS011;4093;53.470;9.832;2023-06-14T10:17:23;6.18;;;3.53;;
8100;SDS011;4093;53.470;9.832;2023-06-14T10:19:58;5.03;;;3.33;;
8100;SDS011;4093;53.470;9.832;2023-06-14T10:22:41;5.88;;;3.40;;
8100;SDS011;4093;53.470;9.832;2023-06-14T10:25:25;5.22;;;3.30;;
8100;SDS011;4093;53.470;9.832;2023-06-14T10:28:02;3.70;;;3.38;;
8100;SDS011;4093;53.470;9.832;2023-06-14T10:30:31;5.43;;;3.50;;
8100;SDS011;4093;53.470;9.832;2023-06-14T10:33:03;9.20;;;3.60;;
8100;SDS011;4093;53.470;9.832;2023-06-14T10:35:33;5.70;;;3.33;;
8100;SDS011;4093;53.470;9.832;2023-06-14T10:38:07;5.55;;;3.40;;
8100;SDS011;4093;53.470;9.832;2023-06-14T10:40:36;4.75;;;3.50;;
8100;SDS011;4093;53.470;9.832;2023-06-14T10:43:23;5.95;;;3.40;;
8100;SDS011;4093;53.470;9.832;2023-06-14T10:48:45;8.25;;;3.88;;
8100;SDS011;4093;53.470;9.832;2023-06-14T10:51:16;9.13;;;3.47;;
8100;SDS011;4093;53.470;9.832;2023-06-14T10:53:47;5.97;;;3.35;;
8100;SDS011;4093;53.470;9.832;2023-06-14T10:56:28;5.43;;;3.85;;
8100;SDS011;4093;53.470;9.832;2023-06-14T10:58:57;6.07;;;3.90;;
8100;SDS011;4093;53.470;9.832;2023-06-14T11:04:10;9.23;;;3.70;;
8100;SDS011;4093;53.470;9.832;2023-06-14T11:06:49;5.32;;;3.60;;
8100;SDS011;4093;53.470;9.832;2023-06-14T11:09:31;4.15;;;3.40;;
8100;SDS011;4093;53.470;9.832;2023-06-14T11:12:13;8.73;;;3.47;;
8100;SDS011;4093;53.470;9.832;2023-06-14T11:14:42;5.28;;;3.33;;
8100;SDS011;4093;53.470;9.832;2023-06-14T11:17:13;6.25;;;3.20;;
8100;SDS011;4093;53.470;9.832;2023-06-14T11:19:41;3.97;;;3.60;;
8100;SDS011;4093;53.470;9.832;2023-06-14T11:22:10;4.38;;;3.40;;
8100;SDS011;4093;53.470;9.832;2023-06-14T11:24:38;9.60;;;3.63;;
8100;SDS011;4093;53.470;9.832;2023-06-14T11:27:05;5.32;;;3.40;;
8100;SDS011;4093;53.470;9.832;2023-06-14T11:29:35;5.05;;;3.70;;
8100;SDS011;4093;53.470;9.832;2023-06-14T11:32:02;6.65;;;3.72;;
8100;SDS011;4093;53.470;9.832;2023-06-14T11:34:38;6.30;;;3.80;;
8100;SDS011;4093;53.470;9.832;2023-06-14T11:37:06;8.20;;;3.42;;
8100;SDS011;4093;53.470;9.832;2023-06-14T11:39:35;6.65;;;3.38;;
8100;SDS011;4093;53.470;9.832;2023-06-14T11:42:03;4.47;;;3.60;;
8100;SDS011;4093;53.470;9.832;2023-06-14T11:44:31;6.97;;;3.70;;
8100;SDS011;4093;53.470;9.832;2023-06-14T11:46:59;5.20;;;3.50;;
8100;SDS011;4093;53.470;9.832;2023-06-14T11:49:34;3.72;;;3.42;;
8100;SDS011;4093;53.470;9.832;2023-06-14T11:52:03;4.30;;;3.20;;
8100;SDS011;4093;53.470;9.832;2023-06-14T11:54:31;5.78;;;3.38;;
8100;SDS011;4093;53.470;9.832;2023-06-14T11:57:01;7.15;;;3.95;;
8100;SDS011;4093;53.470;9.832;2023-06-14T11:59:29;5.28;;;3.53;;
8100;SDS011;4093;53.470;9.832;2023-06-14T12:01:57;7.00;;;3.58;;
8100;SDS011;4093;53.470;9.832;2023-06-14T12:04:26;5.13;;;3.30;;
8100;SDS011;4093;53.470;9.832;2023-06-14T12:06:54;5.72;;;3.53;;
8100;SDS011;4093;53.470;9.832;2023-06-14T12:09:23;5.15;;;3.47;;
8100;SDS011;4093;53.470;9.832;2023-06-14T12:12:00;8.40;;;3.50;;
8100;SDS011;4093;53.470;9.832;2023-06-14T12:14:30;4.57;;;3.53;;
8100;SDS011;4093;53.470;9.832;2023-06-14T12:17:03;4.68;;;3.70;;
8100;SDS011;4093;53.470;9.832;2023-06-14T12:19:33;4.53;;;3.70;;
8100;SDS011;4093;53.470;9.832;2023-06-14T12:22:09;4.72;;;3.67;;
8100;SDS011;4093;53.470;9.832;2023-06-14T12:24:37;7.57;;;3.55;;
8100;SDS011;4093;53.470;9.832;2023-06-14T12:27:07;4.03;;;3.55;;
8100;SDS011;4093;53.470;9.832;2023-06-14T12:29:35;4.38;;;3.40;;
8100;SDS011;4093;53.470;9.832;2023-06-14T12:32:03;4.95;;;3.60;;
8100;SDS011;4093;53.470;9.832;2023-06-14T12:34:31;5.22;;;3.33;;
8100;SDS011;4093;53.470;9.832;2023-06-14T12:36:59;5.60;;;3.47;;
8100;SDS011;4093;53.470;9.832;2023-06-14T12:39:26;4.78;;;3.60;;
8100;SDS011;4093;53.470;9.832;2023-06-14T12:41:56;6.20;;;3.90;;
8100;SDS011;4093;53.470;9.832;2023-06-14T12:44:25;4.75;;;3.60;;
8100;SDS011;4093;53.470;9.832;2023-06-14T12:46:53;8.82;;;3.88;;
8100;SDS011;4093;53.470;9.832;2023-06-14T12:49:21;4.13;;;3.42;;
8100;SDS011;4093;53.470;9.832;2023-06-14T12:51:48;6.00;;;3.60;;
8100;SDS011;4093;53.470;9.832;2023-06-14T12:54:16;6.00;;;3.78;;
8100;SDS011;4093;53.470;9.832;2023-06-14T12:57:04;4.57;;;3.70;;
8100;SDS011;4093;53.470;9.832;2023-06-14T12:59:33;7.55;;;3.70;;
8100;SDS011;4093;53.470;9.832;2023-06-14T13:02:11;5.53;;;3.90;;
8100;SDS011;4093;53.470;9.832;2023-06-14T13:04:40;7.18;;;3.92;;
8100;SDS011;4093;53.470;9.832;2023-06-14T13:07:08;7.50;;;3.65;;
8100;SDS011;4093;53.470;9.832;2023-06-14T13:09:36;4.18;;;3.70;;
8100;SDS011;4093;53.470;9.832;2023-06-14T13:12:04;6.85;;;3.55;;
8100;SDS011;4093;53.470;9.832;2023-06-14T13:14:34;7.47;;;3.38;;
8100;SDS011;4093;53.470;9.832;2023-06-14T13:17:02;4.15;;;3.42;;
8100;SDS011;4093;53.470;9.832;2023-06-14T13:19:30;7.30;;;4.00;;
8100;SDS011;4093;53.470;9.832;2023-06-14T13:21:58;5.10;;;3.83;;
8100;SDS011;4093;53.470;9.832;2023-06-14T13:24:25;5.78;;;3.83;;
8100;SDS011;4093;53.470;9.832;2023-06-14T13:26:55;4.05;;;3.65;;
8100;SDS011;4093;53.470;9.832;2023-06-14T13:29:23;8.93;;;4.07;;
8100;SDS011;4093;53.470;9.832;2023-06-14T13:31:52;6.28;;;3.75;;
8100;SDS011;4093;53.470;9.832;2023-06-14T13:34:20;7.10;;;3.80;;
8100;SDS011;4093;53.470;9.832;2023-06-14T13:36:48;6.05;;;3.58;;
8100;SDS011;4093;53.470;9.832;2023-06-14T13:39:16;6.55;;;3.95;;
8100;SDS011;4093;53.470;9.832;2023-06-14T13:41:44;7.05;;;4.07;;
8100;SDS011;4093;53.470;9.832;2023-06-14T13:44:12;5.35;;;4.03;;
8100;SDS011;4093;53.470;9.832;2023-06-14T13:46:42;6.97;;;4.15;;
8100;SDS011;4093;53.470;9.832;2023-06-14T13:49:11;7.55;;;3.95;;
8100;SDS011;4093;53.470;9.832;2023-06-14T13:51:39;5.47;;;3.88;;
8100;SDS011;4093;53.470;9.832;2023-06-14T13:54:07;4.68;;;3.28;;
8100;SDS011;4093;53.470;9.832;2023-06-14T13:56:35;4.55;;;3.45;;
8100;SDS011;4093;53.470;9.832;2023-06-14T13:59:02;4.88;;;3.80;;
8100;SDS011;4093;53.470;9.832;2023-06-14T14:01:30;4.50;;;3.75;;
8100;SDS011;4093;53.470;9.832;2023-06-14T14:03:58;5.38;;;3.70;;
8100;SDS011;4093;53.470;9.832;2023-06-14T14:06:28;5.50;;;3.70;;
8100;SDS011;4093;53.470;9.832;2023-06-14T14:08:56;4.00;;;3.58;;
8100;SDS011;4093;53.470;9.832;2023-06-14T14:11:23;6.70;;;3.78;;
8100;SDS011;4093;53.470;9.832;2023-06-14T14:13:51;7.43;;;3.25;;
8100;SDS011;4093;53.470;9.832;2023-06-14T14:16:19;4.38;;;3.75;;
8100;SDS011;4093;53.470;9.832;2023-06-14T14:18:47;5.07;;;3.67;;
8100;SDS011;4093;53.470;9.832;2023-06-14T14:21:14;5.68;;;3.70;;
8100;SDS011;4093;53.470;9.832;2023-06-14T14:23:43;5.43;;;3.58;;
8100;SDS011;4093;53.470;9.832;2023-06-14T14:26:11;4.88;;;3.97;;
8100;SDS011;4093;53.470;9.832;2023-06-14T14:28:39;5.07;;;3.60;;
8100;SDS011;4093;53.470;9.832;2023-06-14T14:31:07;9.23;;;3.80;;
8100;SDS011;4093;53.470;9.832;2023-06-14T14:33:34;5.43;;;3.63;;
8100;SDS011;4093;53.470;9.832;2023-06-14T14:36:02;5.65;;;3.35;;
8100;SDS011;4093;53.470;9.832;2023-06-14T14:38:32;4.43;;;3.10;;
8100;SDS011;4093;53.470;9.832;2023-06-14T14:41:01;5.28;;;3.90;;
8100;SDS011;4093;53.470;9.832;2023-06-14T14:43:29;8.93;;;3.70;;
8100;SDS011;4093;53.470;9.832;2023-06-14T14:45:58;6.10;;;3.92;;
8100;SDS011;4093;53.470;9.832;2023-06-14T14:48:25;5.60;;;3.50;;
8100;SDS011;4093;53.470;9.832;2023-06-14T14:50:53;8.68;;;7.13;;
8100;SDS011;4093;53.470;9.832;2023-06-14T14:53:21;5.43;;;3.70;;
8100;SDS011;4093;53.470;9.832;2023-06-14T14:55:49;5.32;;;3.83;;
8100;SDS011;4093;53.470;9.832;2023-06-14T14:58:18;6.07;;;3.72;;
8100;SDS011;4093;53.470;9.832;2023-06-14T15:00:46;4.30;;;3.70;;
8100;SDS011;4093;53.470;9.832;2023-06-14T15:03:14;4.97;;;3.47;;
8100;SDS011;4093;53.470;9.832;2023-06-14T15:05:42;6.65;;;3.30;;
8100;SDS011;4093;53.470;9.832;2023-06-14T15:08:10;6.53;;;3.38;;
8100;SDS011;4093;53.470;9.832;2023-06-14T15:10:38;6.57;;;3.70;;
8100;SDS011;4093;53.470;9.832;2023-06-14T15:13:07;6.43;;;3.75;;
8100;SDS011;4093;53.470;9.832;2023-06-14T15:15:37;7.45;;;3.45;;
8100;SDS011;4093;53.470;9.832;2023-06-14T15:18:04;7.07;;;3.65;;
8100;SDS011;4093;53.470;9.832;2023-06-14T15:20:33;6.32;;;3.40;;
8100;SDS011;4093;53.470;9.832;2023-06-14T15:23:00;5.32;;;3.80;;
8100;SDS011;4093;53.470;9.832;2023-06-14T15:25:29;6.43;;;3.55;;
8100;SDS011;4093;53.470;9.832;2023-06-14T15:27:58;6.78;;;3.58;;
8100;SDS011;4093;53.470;9.832;2023-06-14T15:30:27;7.95;;;3.42;;
8100;SDS011;4093;53.470;9.832;2023-06-14T15:32:56;3.90;;;3.50;;